LFOE 211500Z AUTO 29004KT 220V360 9999 FEW028 OVC049 24/17 Q1020 NOSIG

ElémentsDécodage
LFOE Station météo située sur l'aérodrome de EVREUX Fauville
211500Z émis le 21 du mois à 15h00 UTC
AUTO Bulletin édité par un automate
29004KT vent du 290°, 04 noeuds
220V360 vent de direction variable entre 220° et 360°
9999 visibilité horizontale supérieure à 10 Km
FEW028 nuages rares (1/8 à 2/8) à 2800 pieds
OVC049 couverture nuageuse totale (8/8) à 4900 pieds
24/17 température 24°C, point de rosée 17°C
 soit une humidité relative de 65%
Q1020 la pression au niveau de la mer (QNH) est de 1020 hPa
NOSIG Pas de changement significatif prévu au cours des deux heures suivant l'heure de l'observation